createdAt,value
2019-05-11T00:02:14.220Z,9.80
2019-05-11T00:05:02.422Z,9.80
2019-05-11T00:07:50.880Z,9.80
2019-05-11T00:10:39.008Z,9.80
2019-05-11T00:13:27.710Z,9.90
2019-05-11T00:16:18.946Z,9.90
2019-05-11T00:19:05.303Z,10.00
2019-05-11T00:21:53.533Z,9.90
2019-05-11T00:24:41.891Z,9.90
2019-05-11T00:27:30.354Z,9.80
2019-05-11T00:30:18.454Z,9.80
2019-05-11T00:33:06.347Z,9.90
2019-05-11T00:35:55.191Z,9.90
2019-05-11T00:38:43.132Z,10.00
2019-05-11T00:41:31.376Z,10.00
2019-05-11T00:44:19.612Z,9.90
2019-05-11T00:47:07.371Z,10.00
2019-05-11T00:49:55.111Z,10.00
2019-05-11T00:52:43.132Z,9.90
2019-05-11T00:55:31.422Z,9.90
2019-05-11T00:58:19.660Z,9.90
2019-05-11T01:01:08.556Z,9.90
2019-05-11T01:03:56.822Z,10.00
2019-05-11T01:06:45.275Z,10.00
2019-05-11T01:09:32.842Z,10.00
2019-05-11T01:12:21.187Z,10.00
2019-05-11T01:15:10.142Z,10.00
2019-05-11T01:17:58.122Z,10.00
2019-05-11T01:20:46.568Z,10.00
2019-05-11T01:23:34.407Z,10.00
2019-05-11T01:26:22.635Z,10.00
2019-05-11T01:29:10.761Z,10.00
2019-05-11T01:31:59.064Z,10.00
2019-05-11T01:34:47.344Z,10.10
2019-05-11T01:37:36.110Z,10.00
2019-05-11T01:40:23.964Z,10.00
2019-05-11T01:43:11.436Z,10.00
2019-05-11T01:46:00.122Z,10.00
2019-05-11T01:48:49.026Z,10.00
2019-05-11T01:51:37.497Z,10.00
2019-05-11T01:54:25.915Z,10.00
2019-05-11T01:57:14.203Z,10.10
2019-05-11T02:00:02.339Z,10.10
2019-05-11T02:02:50.177Z,10.10
2019-05-11T02:05:38.876Z,10.00
2019-05-11T02:08:27.339Z,10.00
2019-05-11T02:11:16.378Z,10.00
2019-05-11T02:14:04.811Z,9.90
2019-05-11T02:16:52.671Z,10.00
2019-05-11T02:19:41.583Z,10.00
2019-05-11T02:22:29.800Z,10.10
2019-05-11T02:25:18.103Z,10.10
2019-05-11T02:28:06.926Z,10.10
2019-05-11T02:30:54.724Z,10.10
2019-05-11T02:33:43.168Z,10.10
2019-05-11T02:36:31.269Z,10.10
2019-05-11T02:39:19.624Z,9.90
2019-05-11T02:42:07.641Z,9.90
2019-05-11T02:44:55.630Z,9.90
2019-05-11T02:47:43.846Z,9.90
2019-05-11T02:50:32.932Z,9.90
2019-05-11T02:53:21.408Z,9.90
2019-05-11T02:56:09.656Z,9.90
2019-05-11T02:58:57.960Z,10.00
2019-05-11T03:01:45.535Z,10.00
2019-05-11T03:04:33.328Z,10.00
2019-05-11T03:07:21.716Z,10.10
2019-05-11T03:10:09.710Z,10.00
2019-05-11T03:12:58.167Z,10.00
2019-05-11T03:15:46.752Z,10.00
2019-05-11T03:18:34.420Z,10.00
2019-05-11T03:21:21.914Z,10.00
2019-05-11T03:24:09.884Z,10.10
2019-05-11T03:26:58.037Z,10.00
2019-05-11T03:29:46.266Z,10.00
2019-05-11T03:32:34.439Z,10.00
2019-05-11T03:35:22.844Z,9.90
2019-05-11T03:38:11.195Z,9.90
2019-05-11T03:40:58.697Z,9.80
2019-05-11T03:43:46.851Z,9.70
2019-05-11T03:46:35.831Z,9.80
2019-05-11T03:49:23.944Z,9.70
2019-05-11T03:52:11.945Z,9.80
2019-05-11T03:55:00.323Z,9.80
2019-05-11T03:57:49.042Z,9.80
2019-05-11T04:00:37.304Z,9.70
2019-05-11T04:03:25.603Z,9.80
2019-05-11T04:06:14.000Z,9.80
2019-05-11T04:09:02.595Z,9.80
2019-05-11T04:11:50.854Z,9.80
2019-05-11T04:14:39.016Z,9.90
2019-05-11T04:17:26.755Z,9.80
2019-05-11T04:20:15.169Z,9.80
2019-05-11T04:23:03.338Z,9.80
2019-05-11T04:25:51.556Z,9.90
2019-05-11T04:28:39.305Z,10.00
2019-05-11T04:31:27.176Z,9.90
2019-05-11T04:34:15.535Z,9.90
2019-05-11T04:37:03.123Z,9.90
2019-05-11T04:39:51.899Z,9.90
2019-05-11T04:42:54.450Z,9.90
2019-05-11T04:45:30.264Z,9.90
2019-05-11T04:48:18.435Z,9.90
2019-05-11T04:51:06.116Z,9.90
2019-05-11T04:53:54.264Z,9.90
2019-05-11T04:56:42.195Z,9.90
2019-05-11T04:59:30.343Z,10.00
2019-05-11T05:02:18.050Z,10.10
2019-05-11T05:05:05.876Z,10.20
2019-05-11T05:08:07.437Z,10.30
2019-05-11T05:10:43.204Z,10.30
2019-05-11T05:13:31.613Z,10.20
2019-05-11T05:16:19.770Z,10.20
2019-05-11T05:19:08.268Z,10.20
2019-05-11T05:21:57.120Z,10.20
2019-05-11T05:24:45.348Z,10.20
2019-05-11T05:27:33.970Z,10.30
2019-05-11T05:30:21.890Z,10.40
2019-05-11T05:33:10.277Z,10.40
2019-05-11T05:35:57.776Z,10.50
2019-05-11T05:38:46.032Z,10.60
2019-05-11T05:41:35.317Z,10.60
2019-05-11T05:44:27.121Z,10.60
2019-05-11T05:47:13.051Z,10.60
2019-05-11T05:50:01.352Z,10.70
2019-05-11T05:52:49.882Z,10.70
2019-05-11T05:55:37.916Z,10.70
2019-05-11T05:58:25.441Z,10.60
2019-05-11T06:01:13.654Z,10.60
2019-05-11T06:04:02.108Z,10.50
2019-05-11T06:06:49.615Z,10.60
2019-05-11T06:09:37.823Z,10.60
2019-05-11T06:12:25.690Z,10.50
2019-05-11T06:15:14.003Z,10.60
2019-05-11T06:18:02.262Z,10.60
2019-05-11T06:20:50.247Z,10.60
2019-05-11T06:23:37.748Z,10.60
2019-05-11T06:26:25.519Z,10.60
2019-05-11T06:29:13.497Z,10.50
2019-05-11T06:32:01.834Z,10.40
2019-05-11T06:34:49.670Z,10.50
2019-05-11T06:37:37.167Z,10.60
2019-05-11T06:40:28.390Z,10.60
2019-05-11T06:43:14.389Z,10.80
2019-05-11T06:46:02.105Z,11.00
2019-05-11T06:48:50.119Z,10.90
2019-05-11T06:51:40.389Z,10.90
2019-05-11T06:54:27.674Z,11.10
2019-05-11T06:57:15.390Z,11.20
2019-05-11T07:00:04.303Z,11.10
2019-05-11T07:02:52.567Z,11.00
2019-05-11T07:05:40.740Z,11.20
2019-05-11T07:08:29.395Z,11.20
2019-05-11T07:11:17.778Z,11.40
2019-05-11T07:14:19.790Z,11.40
2019-05-11T07:16:55.861Z,11.50
2019-05-11T07:19:47.359Z,11.60
2019-05-11T07:22:33.239Z,11.50
2019-05-11T07:25:21.596Z,11.50
2019-05-11T07:28:10.296Z,11.70
2019-05-11T07:30:58.616Z,11.90
2019-05-11T07:33:48.659Z,12.10
2019-05-11T07:36:38.593Z,12.10
2019-05-11T07:39:27.788Z,12.10
2019-05-11T07:42:17.867Z,12.20
2019-05-11T07:45:05.511Z,12.20
2019-05-11T07:47:53.600Z,12.00
2019-05-11T07:50:41.171Z,11.80
2019-05-11T07:53:28.871Z,11.80
2019-05-11T07:56:18.721Z,11.80
2019-05-11T07:59:07.958Z,11.90
2019-05-11T08:01:58.152Z,11.90
2019-05-11T08:04:45.339Z,11.90
2019-05-11T08:07:33.727Z,11.70
2019-05-11T08:10:21.677Z,11.70
2019-05-11T08:13:09.982Z,11.80
2019-05-11T08:15:57.995Z,11.80
2019-05-11T08:18:48.197Z,11.80
2019-05-11T08:21:35.655Z,11.90
2019-05-11T08:24:23.428Z,11.60
2019-05-11T08:27:12.004Z,11.50
2019-05-11T08:30:00.302Z,11.50
2019-05-11T08:32:49.289Z,11.80
2019-05-11T08:35:38.962Z,11.80
2019-05-11T08:38:28.634Z,11.80
2019-05-11T08:41:18.441Z,11.90
2019-05-11T08:44:08.942Z,11.80
2019-05-11T08:46:58.215Z,11.90
2019-05-11T08:49:48.480Z,12.10
2019-05-11T08:52:38.642Z,12.30
2019-05-11T08:55:28.932Z,12.20
2019-05-11T08:58:19.446Z,12.30
2019-05-11T09:01:08.775Z,12.30
2019-05-11T09:03:58.350Z,12.50
2019-05-11T09:06:48.131Z,12.50
2019-05-11T09:09:37.919Z,12.70
2019-05-11T09:12:25.708Z,12.90
2019-05-11T09:15:30.020Z,13.00
2019-05-11T09:18:04.370Z,13.30
2019-05-11T09:20:51.996Z,13.50
2019-05-11T09:23:40.905Z,13.40
2019-05-11T09:26:28.827Z,13.60
2019-05-11T09:29:17.999Z,13.70
2019-05-11T09:32:05.639Z,13.20
2019-05-11T09:34:53.703Z,13.00
2019-05-11T09:37:42.174Z,13.00
2019-05-11T09:40:30.047Z,13.00
2019-05-11T09:43:18.055Z,13.30
2019-05-11T09:46:08.274Z,13.10
2019-05-11T09:48:58.925Z,13.00
2019-05-11T09:51:48.265Z,13.00
2019-05-11T09:54:38.171Z,12.60
2019-05-11T09:57:27.643Z,12.60
2019-05-11T10:00:17.936Z,12.60
2019-05-11T10:03:08.214Z,12.50
2019-05-11T10:05:57.961Z,12.50
2019-05-11T10:08:48.453Z,12.30
2019-05-11T10:11:35.559Z,12.30
2019-05-11T10:14:23.498Z,12.40
2019-05-11T10:17:11.593Z,12.20
2019-05-11T10:19:59.991Z,12.20
2019-05-11T10:22:48.745Z,12.40
2019-05-11T10:25:39.064Z,12.40
2019-05-11T10:28:28.426Z,12.60
2019-05-11T10:31:18.161Z,13.00
2019-05-11T10:34:08.653Z,12.90
2019-05-11T10:36:57.936Z,12.80
2019-05-11T10:39:45.872Z,12.90
2019-05-11T10:42:34.000Z,12.90
2019-05-11T10:45:22.475Z,13.10
2019-05-11T10:48:10.603Z,13.20
2019-05-11T10:50:59.291Z,13.20
2019-05-11T10:53:51.705Z,13.30
2019-05-11T10:56:38.818Z,13.20
2019-05-11T10:59:28.239Z,13.10
2019-05-11T11:02:18.520Z,13.30
2019-05-11T11:05:08.083Z,13.60
2019-05-11T11:07:58.822Z,13.60
2019-05-11T11:10:48.394Z,13.60
2019-05-11T11:13:38.678Z,14.10
2019-05-11T11:16:36.980Z,14.30
2019-05-11T11:19:18.175Z,14.30
2019-05-11T11:22:29.362Z,14.10
2019-05-11T11:24:55.418Z,14.00
2019-05-11T11:27:43.955Z,14.00
2019-05-11T11:30:32.286Z,14.00
2019-05-11T11:33:20.316Z,14.00
2019-05-11T11:36:08.644Z,13.70
2019-05-11T11:38:58.199Z,14.30
2019-05-11T11:41:45.598Z,14.50
2019-05-11T11:44:33.283Z,14.30
2019-05-11T11:47:21.852Z,14.00
2019-05-11T11:50:10.495Z,13.70
2019-05-11T11:52:58.899Z,13.90
2019-05-11T11:55:48.156Z,13.70
2019-05-11T11:58:38.110Z,13.40
2019-05-11T12:01:28.064Z,13.20
2019-05-11T12:04:18.635Z,13.10
2019-05-11T12:07:05.843Z,13.40
2019-05-11T12:09:53.363Z,13.60
2019-05-11T12:12:41.779Z,14.20
2019-05-11T12:15:30.019Z,14.70
2019-05-11T12:18:18.487Z,14.90
2019-05-11T12:21:07.986Z,14.60
2019-05-11T12:23:58.484Z,14.80
2019-05-11T12:26:48.016Z,15.00
2019-05-11T12:29:38.387Z,15.50
2019-05-11T12:32:32.915Z,15.30
2019-05-11T12:35:20.735Z,15.10
2019-05-11T12:38:09.206Z,15.20
2019-05-11T12:40:57.985Z,15.20
2019-05-11T12:43:48.904Z,14.90
2019-05-11T12:46:39.391Z,15.30
2019-05-11T12:49:28.983Z,15.20
2019-05-11T12:52:18.503Z,15.10
2019-05-11T12:55:08.546Z,14.60
2019-05-11T12:57:58.025Z,14.50
2019-05-11T13:00:47.963Z,14.90
2019-05-11T13:03:38.617Z,15.50
2019-05-11T13:06:27.914Z,15.40
2019-05-11T13:09:18.335Z,15.20
2019-05-11T13:12:08.021Z,14.90
2019-05-11T13:14:57.894Z,14.70
2019-05-11T13:17:45.755Z,14.70
2019-05-11T13:20:34.176Z,15.10
2019-05-11T13:23:22.218Z,17.10
2019-05-11T13:26:13.294Z,18.80
2019-05-11T13:28:59.379Z,19.70
2019-05-11T13:31:48.659Z,20.20
2019-05-11T13:34:38.720Z,20.40
2019-05-11T13:37:28.316Z,19.70
2019-05-11T13:40:18.506Z,20.20
2019-05-11T13:43:08.300Z,19.70
2019-05-11T13:45:58.234Z,19.80
2019-05-11T13:48:47.719Z,19.20
2019-05-11T13:51:35.362Z,19.80
2019-05-11T13:54:23.245Z,20.40
2019-05-11T13:57:11.327Z,20.10
2019-05-11T13:59:59.797Z,20.30
2019-05-11T14:02:48.468Z,20.30
2019-05-11T14:05:37.851Z,20.30
2019-05-11T14:08:27.767Z,19.90
2019-05-11T14:11:17.905Z,20.40
2019-05-11T14:14:05.166Z,19.20
2019-05-11T14:16:53.522Z,18.40
2019-05-11T14:19:41.720Z,17.10
2019-05-11T14:22:30.247Z,16.70
2019-05-11T14:25:18.890Z,16.80
2019-05-11T14:28:08.892Z,17.40
2019-05-11T14:30:57.956Z,18.10
2019-05-11T14:33:45.855Z,18.00
2019-05-11T14:36:34.220Z,19.60
2019-05-11T14:39:22.003Z,20.60
2019-05-11T14:42:10.079Z,20.80
2019-05-11T14:44:59.171Z,19.50
2019-05-11T14:47:47.888Z,18.20
2019-05-11T14:50:38.633Z,17.50
2019-05-11T14:53:28.214Z,17.10
2019-05-11T14:56:15.208Z,16.40
2019-05-11T14:59:03.123Z,16.10
2019-05-11T15:01:51.551Z,15.80
2019-05-11T15:04:40.007Z,15.50
2019-05-11T15:07:28.536Z,15.40
2019-05-11T15:10:18.738Z,15.20
2019-05-11T15:13:08.035Z,15.10
2019-05-11T15:15:58.700Z,15.00
2019-05-11T15:18:48.542Z,15.00
2019-05-11T15:21:38.695Z,15.10
2019-05-11T15:24:28.824Z,15.60
2019-05-11T15:27:18.409Z,16.90
2019-05-11T15:30:08.042Z,18.10
2019-05-11T15:32:58.060Z,18.70
2019-05-11T15:35:47.914Z,19.10
2019-05-11T15:38:37.928Z,19.90
2019-05-11T15:41:28.059Z,20.00
2019-05-11T15:44:18.065Z,20.00
2019-05-11T15:47:07.617Z,19.70
2019-05-11T15:49:54.891Z,19.30
2019-05-11T15:52:42.480Z,17.90
2019-05-11T15:55:30.090Z,17.60
2019-05-11T15:58:21.437Z,17.30
2019-05-11T16:01:07.943Z,17.30
2019-05-11T16:03:58.176Z,16.80
2019-05-11T16:06:45.683Z,16.30
2019-05-11T16:09:33.128Z,15.90
2019-05-11T16:12:21.655Z,16.00
2019-05-11T16:15:12.117Z,16.30
2019-05-11T16:18:00.202Z,16.60
2019-05-11T16:20:50.283Z,16.90
2019-05-11T16:23:39.053Z,17.00
2019-05-11T16:26:28.102Z,16.70
2019-05-11T16:29:18.544Z,16.00
2019-05-11T16:32:08.238Z,15.80
2019-05-11T16:34:57.630Z,15.70
2019-05-11T16:37:45.491Z,15.60
2019-05-11T16:40:33.033Z,15.60
2019-05-11T16:43:21.660Z,15.80
2019-05-11T16:46:09.522Z,15.80
2019-05-11T16:48:58.000Z,16.00
2019-05-11T16:51:46.438Z,15.80
2019-05-11T16:54:34.877Z,15.70
2019-05-11T16:57:23.358Z,15.60
2019-05-11T17:00:11.810Z,15.40
2019-05-11T17:02:59.895Z,15.30
2019-05-11T17:05:48.658Z,15.20
2019-05-11T17:08:38.420Z,15.30
2019-05-11T17:11:28.800Z,15.30
2019-05-11T17:14:18.606Z,15.30
2019-05-11T17:17:08.191Z,15.30
2019-05-11T17:19:58.791Z,15.20
2019-05-11T17:22:47.960Z,15.10
2019-05-11T17:25:37.953Z,15.10
2019-05-11T17:28:26.468Z,15.00
2019-05-11T17:31:14.403Z,14.80
2019-05-11T17:34:02.506Z,14.70
2019-05-11T17:36:50.326Z,14.60
2019-05-11T17:39:38.760Z,14.50
2019-05-11T17:42:26.504Z,14.50
2019-05-11T17:45:14.661Z,14.50
2019-05-11T17:48:03.161Z,14.30
2019-05-11T17:50:51.903Z,14.10
2019-05-11T17:53:40.147Z,14.00
2019-05-11T17:56:28.223Z,14.00
2019-05-11T17:59:16.395Z,13.90
2019-05-11T18:02:04.056Z,13.80
2019-05-11T18:04:52.749Z,13.70
2019-05-11T18:07:41.154Z,13.60
2019-05-11T18:10:29.363Z,13.50
2019-05-11T18:13:17.379Z,13.40
2019-05-11T18:16:08.399Z,13.40
2019-05-11T18:18:56.037Z,13.30
2019-05-11T18:21:44.302Z,13.20
2019-05-11T18:24:32.707Z,13.10
2019-05-11T18:27:20.971Z,13.10
2019-05-11T18:30:09.683Z,12.90
2019-05-11T18:32:59.378Z,12.90
2019-05-11T18:35:47.875Z,12.80
2019-05-11T18:38:37.993Z,12.70
2019-05-11T18:41:28.148Z,12.60
2019-05-11T18:44:15.584Z,12.60
2019-05-11T18:47:04.111Z,12.50
2019-05-11T18:49:51.928Z,12.40
2019-05-11T18:52:39.735Z,12.30
2019-05-11T18:55:28.174Z,12.30
2019-05-11T18:58:18.514Z,12.20
2019-05-11T19:01:05.431Z,12.20
2019-05-11T19:03:53.847Z,12.10
2019-05-11T19:06:41.995Z,12.00
2019-05-11T19:09:30.151Z,12.00
2019-05-11T19:12:18.914Z,11.90
2019-05-11T19:15:07.800Z,11.80
2019-05-11T19:17:58.103Z,11.70
2019-05-11T19:20:49.247Z,11.60
2019-05-11T19:23:37.890Z,11.50
2019-05-11T19:26:25.555Z,11.50
2019-05-11T19:29:14.115Z,11.40
2019-05-11T19:32:01.861Z,11.30
2019-05-11T19:34:50.236Z,11.20
2019-05-11T19:37:38.838Z,11.20
2019-05-11T19:40:26.808Z,11.10
2019-05-11T19:43:14.383Z,11.10
2019-05-11T19:46:02.801Z,11.00
2019-05-11T19:48:51.253Z,10.90
2019-05-11T19:51:42.315Z,10.80
2019-05-11T19:54:29.523Z,10.80
2019-05-11T19:57:18.112Z,10.70
2019-05-11T20:00:07.906Z,10.60
2019-05-11T20:02:58.388Z,10.60
2019-05-11T20:05:45.743Z,10.60
2019-05-11T20:08:34.420Z,10.50
2019-05-11T20:11:22.583Z,10.40
2019-05-11T20:14:10.830Z,10.30
2019-05-11T20:16:59.459Z,10.30
2019-05-11T20:19:49.039Z,10.20
2019-05-11T20:22:39.027Z,10.10
2019-05-11T20:25:28.784Z,10.10
2019-05-11T20:28:18.302Z,10.00
2019-05-11T20:31:08.056Z,10.00
2019-05-11T20:33:56.398Z,9.90
2019-05-11T20:36:44.794Z,9.90
2019-05-11T20:39:33.251Z,9.70
2019-05-11T20:42:21.824Z,9.70
2019-05-11T20:45:10.015Z,9.60
2019-05-11T20:47:57.509Z,9.60
2019-05-11T20:50:45.102Z,9.60
2019-05-11T20:53:33.373Z,9.50
2019-05-11T20:56:21.899Z,9.50
2019-05-11T20:59:10.121Z,9.50
2019-05-11T21:01:58.938Z,9.50
2019-05-11T21:04:49.011Z,9.40
2019-05-11T21:07:38.486Z,9.40
2019-05-11T21:10:28.150Z,9.30
2019-05-11T21:13:17.948Z,9.20
2019-05-11T21:16:08.637Z,9.20
2019-05-11T21:18:58.037Z,9.10
2019-05-11T21:21:53.235Z,9.00
2019-05-11T21:24:36.266Z,9.00
2019-05-11T21:27:24.833Z,8.80
2019-05-11T21:30:14.395Z,8.80
2019-05-11T21:33:02.367Z,8.80
2019-05-11T21:35:50.362Z,8.70
2019-05-11T21:38:38.713Z,8.70
2019-05-11T21:41:30.539Z,8.60
2019-05-11T21:44:18.854Z,8.60
2019-05-11T21:47:07.693Z,8.50
2019-05-11T21:49:57.788Z,8.40
2019-05-11T21:52:48.298Z,8.40
2019-05-11T21:55:37.799Z,8.40
2019-05-11T21:58:25.567Z,8.40
2019-05-11T22:01:13.992Z,8.30
2019-05-11T22:04:01.731Z,8.20
2019-05-11T22:06:49.903Z,8.20
2019-05-11T22:09:38.508Z,8.10
2019-05-11T22:12:27.992Z,8.10
2019-05-11T22:15:16.891Z,8.00
2019-05-11T22:18:07.815Z,8.00
2019-05-11T22:20:54.935Z,8.00
2019-05-11T22:23:42.970Z,7.90
2019-05-11T22:26:31.195Z,7.90
2019-05-11T22:29:19.121Z,7.80
2019-05-11T22:32:07.562Z,7.80
2019-05-11T22:34:55.294Z,7.70
2019-05-11T22:37:43.502Z,7.60
2019-05-11T22:40:31.886Z,7.60
2019-05-11T22:43:20.100Z,7.50
2019-05-11T22:46:07.932Z,7.50
2019-05-11T22:48:58.108Z,7.50
2019-05-11T22:51:45.727Z,7.50
2019-05-11T22:54:33.403Z,7.50
2019-05-11T22:57:21.518Z,7.40
2019-05-11T23:00:10.660Z,7.40
2019-05-11T23:02:58.787Z,7.30
2019-05-11T23:05:47.737Z,7.40
2019-05-11T23:08:36.050Z,7.40
2019-05-11T23:11:24.073Z,7.40
2019-05-11T23:14:11.872Z,7.30
2019-05-11T23:16:59.895Z,7.20
2019-05-11T23:19:48.668Z,7.10
2019-05-11T23:22:56.668Z,7.10
2019-05-11T23:25:36.553Z,7.10
2019-05-11T23:28:24.711Z,7.10
2019-05-11T23:31:13.183Z,7.10
2019-05-11T23:34:01.680Z,7.00
2019-05-11T23:36:49.946Z,7.00
2019-05-11T23:39:38.744Z,6.90
2019-05-11T23:42:28.858Z,6.80
2019-05-11T23:45:18.876Z,6.80
2019-05-11T23:48:06.890Z,6.80
2019-05-11T23:50:54.780Z,6.80
2019-05-11T23:53:43.335Z,6.80
2019-05-11T23:56:31.530Z,6.80
2019-05-11T23:59:19.436Z,6.80
